createdAt,value
2018-03-24T00:00:32.589Z,91.60
2018-03-24T00:03:00.849Z,91.60
2018-03-24T00:05:29.164Z,92.20
2018-03-24T00:07:58.210Z,92.30
2018-03-24T00:10:26.487Z,92.30
2018-03-24T00:12:54.771Z,92.30
2018-03-24T00:15:23.052Z,92.00
2018-03-24T00:17:51.359Z,92.30
2018-03-24T00:20:19.617Z,92.40
2018-03-24T00:22:47.968Z,92.20
2018-03-24T00:25:16.240Z,92.60
2018-03-24T00:27:44.523Z,92.70
2018-03-24T00:30:12.822Z,93.00
2018-03-24T00:32:41.105Z,92.70
2018-03-24T00:35:09.416Z,92.70
2018-03-24T00:37:37.674Z,92.40
2018-03-24T00:40:06.736Z,92.30
2018-03-24T00:42:35.039Z,92.30
2018-03-24T00:45:03.304Z,92.50
2018-03-24T00:47:31.576Z,92.60
2018-03-24T00:49:59.849Z,92.80
2018-03-24T00:52:28.151Z,92.50
2018-03-24T00:54:56.378Z,92.30
2018-03-24T00:57:24.654Z,92.20
2018-03-24T00:59:52.922Z,92.40
2018-03-24T01:02:21.200Z,92.10
2018-03-24T01:04:49.452Z,92.40
2018-03-24T01:07:17.719Z,92.40
2018-03-24T01:09:45.987Z,92.40
2018-03-24T01:12:15.016Z,92.30
2018-03-24T01:14:43.277Z,92.30
2018-03-24T01:17:11.569Z,92.80
2018-03-24T01:19:40.504Z,92.90
2018-03-24T01:22:08.821Z,92.80
2018-03-24T01:24:37.081Z,92.80
2018-03-24T01:27:05.337Z,92.60
2018-03-24T01:29:34.368Z,92.20
2018-03-24T01:32:02.645Z,92.20
2018-03-24T01:34:30.936Z,92.40
2018-03-24T01:36:59.175Z,92.20
2018-03-24T01:39:27.465Z,92.00
2018-03-24T01:41:55.727Z,91.60
2018-03-24T01:44:24.780Z,91.50
2018-03-24T01:46:53.040Z,91.40
2018-03-24T01:49:21.309Z,91.70
2018-03-24T01:51:49.551Z,91.80
2018-03-24T01:54:17.836Z,91.60
2018-03-24T01:56:46.088Z,91.50
2018-03-24T01:59:15.130Z,91.80
2018-03-24T02:01:43.392Z,91.70
2018-03-24T02:04:11.664Z,91.70
2018-03-24T02:06:39.912Z,91.60
2018-03-24T02:09:09.092Z,91.90
2018-03-24T02:11:37.343Z,91.90
2018-03-24T02:14:05.609Z,92.00
2018-03-24T02:16:33.859Z,92.00
2018-03-24T02:19:02.129Z,91.90
2018-03-24T02:21:30.976Z,92.10
2018-03-24T02:23:59.249Z,92.00
2018-03-24T02:26:27.501Z,92.30
2018-03-24T02:28:55.780Z,92.20
2018-03-24T02:31:24.077Z,92.30
2018-03-24T02:33:52.315Z,92.40
2018-03-24T02:36:20.574Z,92.00
2018-03-24T02:38:48.832Z,92.40
2018-03-24T02:41:17.859Z,92.50
2018-03-24T02:43:46.114Z,92.50
2018-03-24T02:46:15.149Z,92.50
2018-03-24T02:48:43.386Z,92.50
2018-03-24T02:51:11.669Z,91.90
2018-03-24T02:53:39.925Z,91.90
2018-03-24T02:56:08.968Z,92.20
2018-03-24T02:58:37.223Z,92.20
2018-03-24T03:01:05.485Z,92.10
2018-03-24T03:03:33.757Z,91.90
2018-03-24T03:06:02.797Z,92.00
2018-03-24T03:08:31.039Z,92.00
2018-03-24T03:10:59.312Z,92.10
2018-03-24T03:13:27.577Z,92.10
2018-03-24T03:15:56.631Z,92.10
2018-03-24T03:18:24.864Z,92.10
2018-03-24T03:20:53.140Z,92.20
2018-03-24T03:23:21.392Z,92.30
2018-03-24T03:25:50.447Z,92.30
2018-03-24T03:28:18.712Z,92.30
2018-03-24T03:30:46.997Z,92.10
2018-03-24T03:33:15.243Z,92.00
2018-03-24T03:35:43.506Z,91.80
2018-03-24T03:38:11.796Z,91.80
2018-03-24T03:40:40.059Z,91.90
2018-03-24T03:43:08.331Z,91.90
2018-03-24T03:45:36.611Z,92.10
2018-03-24T03:48:04.871Z,92.30
2018-03-24T03:50:34.093Z,91.80
2018-03-24T03:53:02.328Z,91.80
2018-03-24T03:55:30.599Z,91.60
2018-03-24T03:57:58.847Z,91.80
2018-03-24T04:00:27.105Z,91.80
2018-03-24T04:02:55.354Z,92.00
2018-03-24T04:05:24.379Z,91.90
2018-03-24T04:07:52.624Z,91.90
2018-03-24T04:10:21.677Z,91.90
2018-03-24T04:12:49.928Z,91.90
2018-03-24T04:15:18.200Z,91.80
2018-03-24T04:17:46.465Z,91.90
2018-03-24T04:20:14.710Z,91.80
2018-03-24T04:22:43.732Z,92.00
2018-03-24T04:25:12.013Z,91.90
2018-03-24T04:27:40.261Z,92.20
2018-03-24T04:30:09.282Z,92.00
2018-03-24T04:32:37.564Z,92.00
2018-03-24T04:35:05.834Z,91.90
2018-03-24T04:37:34.093Z,92.00
2018-03-24T04:40:02.355Z,91.90
2018-03-24T04:42:31.525Z,91.90
2018-03-24T04:44:59.856Z,91.90
2018-03-24T04:47:28.107Z,91.80
2018-03-24T04:49:57.152Z,91.90
2018-03-24T04:52:25.431Z,91.80
2018-03-24T04:54:53.689Z,92.00
2018-03-24T04:57:21.968Z,92.30
2018-03-24T04:59:50.214Z,92.00
2018-03-24T05:02:19.240Z,91.90
2018-03-24T05:04:47.504Z,91.90
2018-03-24T05:07:15.761Z,91.70
2018-03-24T05:09:44.039Z,91.80
2018-03-24T05:12:12.332Z,91.90
2018-03-24T05:14:40.596Z,92.00
2018-03-24T05:17:08.857Z,92.00
2018-03-24T05:19:37.919Z,92.30
2018-03-24T05:22:06.175Z,92.30
2018-03-24T05:24:34.439Z,92.20
2018-03-24T05:27:02.747Z,92.00
2018-03-24T05:29:30.999Z,92.00
2018-03-24T05:31:59.273Z,91.80
2018-03-24T05:34:27.520Z,91.60
2018-03-24T05:36:55.808Z,91.70
2018-03-24T05:39:24.046Z,91.60
2018-03-24T05:41:52.316Z,91.60
2018-03-24T05:44:20.556Z,91.60
2018-03-24T05:46:48.809Z,91.60
2018-03-24T05:49:17.091Z,91.80
2018-03-24T05:51:45.340Z,91.60
2018-03-24T05:54:14.498Z,91.30
2018-03-24T05:56:43.496Z,91.10
2018-03-24T05:59:11.753Z,91.10
2018-03-24T06:01:40.019Z,91.00
2018-03-24T06:04:08.284Z,90.80
2018-03-24T06:06:36.577Z,91.10
2018-03-24T06:09:04.844Z,91.00
2018-03-24T06:11:33.100Z,91.40
2018-03-24T06:14:01.357Z,91.00
2018-03-24T06:16:30.382Z,91.00
2018-03-24T06:18:58.654Z,91.00
2018-03-24T06:21:26.895Z,90.60
2018-03-24T06:23:55.937Z,90.70
2018-03-24T06:26:24.168Z,90.70
2018-03-24T06:28:53.242Z,90.60
2018-03-24T06:31:25.331Z,90.60
2018-03-24T06:33:54.368Z,91.00
2018-03-24T06:36:37.516Z,90.80
2018-03-24T06:39:05.794Z,90.60
2018-03-24T06:41:34.056Z,90.90
2018-03-24T06:44:02.936Z,90.50
2018-03-24T06:46:31.186Z,90.70
2018-03-24T06:48:59.440Z,90.80
2018-03-24T06:51:28.468Z,90.90
2018-03-24T06:53:56.753Z,90.80
2018-03-24T06:56:25.014Z,90.80
2018-03-24T06:58:53.279Z,90.40
2018-03-24T07:01:21.627Z,90.20
2018-03-24T07:03:49.855Z,90.60
2018-03-24T07:06:18.137Z,91.00
2018-03-24T07:08:46.394Z,91.00
2018-03-24T07:11:14.668Z,90.60
2018-03-24T07:13:42.951Z,90.30
2018-03-24T07:16:11.264Z,90.30
2018-03-24T07:18:39.520Z,90.60
2018-03-24T07:21:07.794Z,90.60
2018-03-24T07:23:36.255Z,90.30
2018-03-24T07:26:04.554Z,90.30
2018-03-24T07:28:32.845Z,90.20
2018-03-24T07:31:01.132Z,90.30
2018-03-24T07:33:29.402Z,90.20
2018-03-24T07:35:57.667Z,90.40
2018-03-24T07:38:25.923Z,89.60
2018-03-24T07:40:54.169Z,88.80
2018-03-24T07:43:23.213Z,88.30
2018-03-24T07:45:51.486Z,88.30
2018-03-24T07:48:20.618Z,88.80
2018-03-24T07:50:48.894Z,88.70
2018-03-24T07:53:17.196Z,87.90
2018-03-24T07:55:46.222Z,85.90
2018-03-24T07:58:14.492Z,86.60
2018-03-24T08:00:43.398Z,85.80
2018-03-24T08:03:11.775Z,86.60
2018-03-24T08:05:40.118Z,85.10
2018-03-24T08:08:08.376Z,85.10
2018-03-24T08:10:36.687Z,84.10
2018-03-24T08:13:04.936Z,82.70
2018-03-24T08:15:33.203Z,82.90
2018-03-24T08:18:01.453Z,83.00
2018-03-24T08:20:29.741Z,81.40
2018-03-24T08:22:58.006Z,82.40
2018-03-24T08:25:26.289Z,81.00
2018-03-24T08:27:54.554Z,80.30
2018-03-24T08:30:24.599Z,80.00
2018-03-24T08:32:52.909Z,78.20
2018-03-24T08:35:23.381Z,77.40
2018-03-24T08:37:51.669Z,76.40
2018-03-24T08:40:19.939Z,75.50
2018-03-24T08:42:48.272Z,75.60
2018-03-24T08:45:16.581Z,74.20
2018-03-24T08:47:46.194Z,72.10
2018-03-24T08:50:14.534Z,71.60
2018-03-24T08:52:42.786Z,70.90
2018-03-24T08:55:11.106Z,69.00
2018-03-24T08:57:40.144Z,67.10
2018-03-24T09:00:09.203Z,68.50
2018-03-24T09:02:37.473Z,68.50
2018-03-24T09:05:05.851Z,66.70
2018-03-24T09:07:34.102Z,66.30
2018-03-24T09:10:02.373Z,62.90
2018-03-24T09:12:30.677Z,63.60
2018-03-24T09:14:58.935Z,65.20
2018-03-24T09:17:27.207Z,63.10
2018-03-24T09:19:55.464Z,62.50
2018-03-24T09:22:23.747Z,64.70
2018-03-24T09:24:52.066Z,63.90
2018-03-24T09:27:20.340Z,63.20
2018-03-24T09:29:48.629Z,62.40
2018-03-24T09:32:16.914Z,63.90
2018-03-24T09:34:45.204Z,62.90
2018-03-24T09:37:13.447Z,60.80
2018-03-24T09:39:41.745Z,59.30
2018-03-24T09:42:10.010Z,60.00
2018-03-24T09:44:38.305Z,58.20
2018-03-24T09:47:07.324Z,58.30
2018-03-24T09:49:35.784Z,58.30
2018-03-24T09:52:04.899Z,57.90
2018-03-24T09:54:33.207Z,57.80
2018-03-24T09:57:01.509Z,58.30
2018-03-24T09:59:29.937Z,58.80
2018-03-24T10:01:58.196Z,56.90
2018-03-24T10:07:00.954Z,54.30
2018-03-24T10:09:29.256Z,54.70
2018-03-24T10:11:57.673Z,55.20
2018-03-24T10:14:25.956Z,55.60
2018-03-24T10:16:55.077Z,53.40
2018-03-24T10:19:23.329Z,53.30
2018-03-24T10:22:14.309Z,53.20
2018-03-24T10:24:43.367Z,49.50
2018-03-24T10:27:11.675Z,49.50
2018-03-24T10:29:40.748Z,51.40
2018-03-24T10:32:09.060Z,51.40
2018-03-24T10:34:38.079Z,52.50
2018-03-24T10:37:06.348Z,52.50
2018-03-24T10:39:34.762Z,51.50
2018-03-24T10:42:03.050Z,52.10
2018-03-24T10:44:31.301Z,51.00
2018-03-24T10:47:00.385Z,51.80
2018-03-24T10:49:28.736Z,51.80
2018-03-24T10:51:56.996Z,51.30
2018-03-24T10:54:25.294Z,51.20
2018-03-24T10:56:53.610Z,51.80
2018-03-24T10:59:22.726Z,52.10
2018-03-24T11:01:51.012Z,52.10
2018-03-24T11:04:19.283Z,51.00
2018-03-24T11:06:47.580Z,51.50
2018-03-24T11:09:15.873Z,51.00
2018-03-24T11:11:44.156Z,49.90
2018-03-24T11:14:12.710Z,50.60
2018-03-24T11:16:41.022Z,48.60
2018-03-24T11:19:10.075Z,48.20
2018-03-24T11:21:39.121Z,47.80
2018-03-24T11:24:07.416Z,47.80
2018-03-24T11:26:35.692Z,48.00
2018-03-24T11:29:04.012Z,48.30
2018-03-24T11:31:33.041Z,46.70
2018-03-24T11:34:01.330Z,46.60
2018-03-24T11:36:29.604Z,47.90
2018-03-24T11:38:57.874Z,47.40
2018-03-24T11:41:26.153Z,48.10
2018-03-24T11:43:54.449Z,46.90
2018-03-24T11:46:22.807Z,47.20
2018-03-24T11:48:51.118Z,46.70
2018-03-24T11:51:19.380Z,45.30
2018-03-24T11:53:47.666Z,46.70
2018-03-24T11:56:16.010Z,46.50
2018-03-24T11:58:44.265Z,46.10
2018-03-24T12:01:12.584Z,46.30
2018-03-24T12:03:41.067Z,46.20
2018-03-24T12:06:09.336Z,44.90
2018-03-24T12:08:37.625Z,43.60
2018-03-24T12:11:05.913Z,44.30
2018-03-24T12:13:34.180Z,44.60
2018-03-24T12:16:02.566Z,44.80
2018-03-24T12:18:30.806Z,43.60
2018-03-24T12:20:59.261Z,44.00
2018-03-24T12:23:27.538Z,43.50
2018-03-24T12:25:55.810Z,44.40
2018-03-24T12:28:24.139Z,43.10
2018-03-24T12:30:52.432Z,43.40
2018-03-24T12:33:20.724Z,42.80
2018-03-24T12:35:48.974Z,43.40
2018-03-24T12:38:17.275Z,43.60
2018-03-24T12:40:46.454Z,44.20
2018-03-24T12:43:14.833Z,44.10
2018-03-24T12:45:43.205Z,43.80
2018-03-24T12:48:12.596Z,41.60
2018-03-24T12:50:41.033Z,42.70
2018-03-24T12:53:09.581Z,42.80
2018-03-24T12:55:37.896Z,42.40
2018-03-24T12:58:06.182Z,43.40
2018-03-24T13:00:34.515Z,42.90
2018-03-24T13:03:02.775Z,42.10
2018-03-24T13:05:31.789Z,42.60
2018-03-24T13:08:01.143Z,42.00
2018-03-24T13:10:29.412Z,42.00
2018-03-24T13:12:57.683Z,42.70
2018-03-24T13:15:25.961Z,43.00
2018-03-24T13:17:54.369Z,41.70
2018-03-24T13:20:22.841Z,41.60
2018-03-24T13:22:51.405Z,41.40
2018-03-24T13:25:19.674Z,42.00
2018-03-24T13:27:47.934Z,41.90
2018-03-24T13:30:17.938Z,41.00
2018-03-24T13:32:52.157Z,40.60
2018-03-24T13:35:23.685Z,41.40
2018-03-24T13:37:51.967Z,40.90
2018-03-24T13:40:20.259Z,41.00
2018-03-24T13:42:49.334Z,39.50
2018-03-24T13:45:17.596Z,39.40
2018-03-24T13:47:46.630Z,40.70
2018-03-24T13:50:15.664Z,41.10
2018-03-24T13:52:43.981Z,41.10
2018-03-24T13:55:12.266Z,40.60
2018-03-24T13:57:40.519Z,40.60
2018-03-24T14:00:08.837Z,39.90
2018-03-24T14:02:37.116Z,39.80
2018-03-24T14:05:06.137Z,39.80
2018-03-24T14:07:34.440Z,40.50
2018-03-24T14:10:02.733Z,40.80
2018-03-24T14:12:30.967Z,42.00
2018-03-24T14:15:00.218Z,42.00
2018-03-24T14:17:29.267Z,42.00
2018-03-24T14:19:58.184Z,41.90
2018-03-24T14:22:26.558Z,41.40
2018-03-24T14:24:54.813Z,42.00
2018-03-24T14:27:23.862Z,43.00
2018-03-24T14:29:52.896Z,43.20
2018-03-24T14:32:21.169Z,43.20
2018-03-24T14:34:49.468Z,43.60
2018-03-24T14:37:17.741Z,43.50
2018-03-24T14:39:46.070Z,43.30
2018-03-24T14:42:14.344Z,44.10
2018-03-24T14:44:42.604Z,42.60
2018-03-24T14:47:11.683Z,44.00
2018-03-24T14:49:39.944Z,44.00
2018-03-24T14:52:08.243Z,42.20
2018-03-24T14:54:37.399Z,41.00
2018-03-24T14:57:05.665Z,42.00
2018-03-24T14:59:33.970Z,42.10
2018-03-24T15:02:02.220Z,42.70
2018-03-24T15:04:30.520Z,43.00
2018-03-24T15:06:58.812Z,42.00
2018-03-24T15:09:27.135Z,43.30
2018-03-24T15:11:55.451Z,43.30
2018-03-24T15:14:23.768Z,44.00
2018-03-24T15:16:52.028Z,42.90
2018-03-24T15:19:20.331Z,44.50
2018-03-24T15:21:48.609Z,43.90
2018-03-24T15:24:16.878Z,43.70
2018-03-24T15:26:45.184Z,44.10
2018-03-24T15:29:25.350Z,43.60
2018-03-24T15:32:05.462Z,44.80
2018-03-24T15:34:45.643Z,45.50
2018-03-24T15:37:13.932Z,45.00
2018-03-24T15:39:42.205Z,45.00
2018-03-24T15:42:10.475Z,46.80
2018-03-24T15:44:38.755Z,46.40
2018-03-24T15:47:07.022Z,46.50
2018-03-24T15:49:35.324Z,47.00
2018-03-24T15:52:03.598Z,47.40
2018-03-24T15:54:31.875Z,47.30
2018-03-24T15:57:00.219Z,47.40
2018-03-24T15:59:28.476Z,47.80
2018-03-24T16:01:57.542Z,48.60
2018-03-24T16:04:25.776Z,48.50
2018-03-24T16:06:54.059Z,47.60
2018-03-24T16:09:22.322Z,47.00
2018-03-24T16:11:50.595Z,47.80
2018-03-24T16:14:18.852Z,47.80
2018-03-24T16:16:48.547Z,47.10
2018-03-24T16:19:17.587Z,47.20
2018-03-24T16:21:45.861Z,47.20
2018-03-24T16:24:14.135Z,48.30
2018-03-24T16:26:42.540Z,48.20
2018-03-24T16:29:10.820Z,48.50
2018-03-24T16:31:39.140Z,47.80
2018-03-24T16:34:08.403Z,48.30
2018-03-24T16:36:36.657Z,47.80
2018-03-24T16:39:05.722Z,49.00
2018-03-24T16:41:33.976Z,49.40
2018-03-24T16:44:02.243Z,49.20
2018-03-24T16:46:30.525Z,49.20
2018-03-24T16:48:58.801Z,49.70
2018-03-24T16:51:27.831Z,50.20
2018-03-24T16:53:56.112Z,50.20
2018-03-24T16:56:24.383Z,49.90
2018-03-24T16:58:52.673Z,50.90
2018-03-24T17:01:20.946Z,50.20
2018-03-24T17:03:49.232Z,51.50
2018-03-24T17:06:17.516Z,51.50
2018-03-24T17:08:46.544Z,51.70
2018-03-24T17:11:14.829Z,51.70
2018-03-24T17:13:43.136Z,51.00
2018-03-24T17:16:11.551Z,52.10
2018-03-24T17:18:39.805Z,51.90
2018-03-24T17:21:08.089Z,50.90
2018-03-24T17:23:36.563Z,51.60
2018-03-24T17:26:04.842Z,51.40
2018-03-24T17:28:33.154Z,52.20
2018-03-24T17:31:01.426Z,52.00
2018-03-24T17:33:29.696Z,53.40
2018-03-24T17:35:57.984Z,53.30
2018-03-24T17:38:26.245Z,53.80
2018-03-24T17:40:54.554Z,53.70
2018-03-24T17:43:22.802Z,54.70
2018-03-24T17:45:51.085Z,54.70
2018-03-24T17:48:19.360Z,54.60
2018-03-24T17:50:47.608Z,55.40
2018-03-24T17:53:15.890Z,55.80
2018-03-24T17:55:44.245Z,55.20
2018-03-24T17:58:13.279Z,56.90
2018-03-24T18:00:41.546Z,56.80
2018-03-24T18:03:09.846Z,56.80
2018-03-24T18:05:38.108Z,57.00
2018-03-24T18:08:06.385Z,58.00
2018-03-24T18:10:34.651Z,58.50
2018-03-24T18:13:02.942Z,59.10
2018-03-24T18:15:31.210Z,59.20
2018-03-24T18:17:59.502Z,60.00
2018-03-24T18:20:27.780Z,59.50
2018-03-24T18:22:56.029Z,58.50
2018-03-24T18:25:24.303Z,59.40
2018-03-24T18:27:52.568Z,58.80
2018-03-24T18:30:20.845Z,58.00
2018-03-24T18:32:49.130Z,58.00
2018-03-24T18:35:17.400Z,58.20
2018-03-24T18:37:45.709Z,58.60
2018-03-24T18:40:14.341Z,58.60
2018-03-24T18:42:42.619Z,57.60
2018-03-24T18:45:10.917Z,57.70
2018-03-24T18:47:39.220Z,58.40
2018-03-24T18:50:07.512Z,58.20
2018-03-24T18:52:36.634Z,58.00
2018-03-24T18:55:04.902Z,58.00
2018-03-24T18:57:33.195Z,58.80
2018-03-24T19:00:01.481Z,59.20
2018-03-24T19:02:30.622Z,59.40
2018-03-24T19:04:58.881Z,59.60
2018-03-24T19:07:27.203Z,59.80
2018-03-24T19:09:56.271Z,60.00
2018-03-24T19:12:24.558Z,60.00
2018-03-24T19:14:52.875Z,59.90
2018-03-24T19:17:21.139Z,60.90
2018-03-24T19:19:49.405Z,61.60
2018-03-24T19:22:17.677Z,61.80
2018-03-24T19:24:45.973Z,62.10
2018-03-24T19:27:14.296Z,61.80
2018-03-24T19:29:42.612Z,62.80
2018-03-24T19:32:11.003Z,62.60
2018-03-24T19:34:40.076Z,64.40
2018-03-24T19:37:09.136Z,65.40
2018-03-24T19:39:37.411Z,65.40
2018-03-24T19:42:05.696Z,65.30
2018-03-24T19:44:33.973Z,65.80
2018-03-24T19:47:02.254Z,66.20
2018-03-24T19:49:30.511Z,67.10
2018-03-24T19:51:59.541Z,66.90
2018-03-24T19:54:27.872Z,66.40
2018-03-24T19:56:56.131Z,66.70
2018-03-24T19:59:24.427Z,66.40
2018-03-24T20:01:52.677Z,67.30
2018-03-24T20:04:20.956Z,67.80
2018-03-24T20:06:49.224Z,67.60
2018-03-24T20:09:17.544Z,67.60
2018-03-24T20:11:45.818Z,67.90
2018-03-24T20:14:14.070Z,67.60
2018-03-24T20:16:42.361Z,68.00
2018-03-24T20:19:10.634Z,68.50
2018-03-24T20:21:38.964Z,69.00
2018-03-24T20:24:08.034Z,69.00
2018-03-24T20:26:36.330Z,69.00
2018-03-24T20:29:04.575Z,68.40
2018-03-24T20:31:32.845Z,69.00
2018-03-24T20:34:01.128Z,69.00
2018-03-24T20:36:29.455Z,69.60
2018-03-24T20:38:57.712Z,69.10
2018-03-24T20:41:25.984Z,68.90
2018-03-24T20:43:55.032Z,68.30
2018-03-24T20:46:23.282Z,68.30
2018-03-24T20:48:51.607Z,68.40
2018-03-24T20:51:19.927Z,67.80
2018-03-24T20:53:48.968Z,68.40
2018-03-24T20:56:17.236Z,68.40
2018-03-24T20:58:45.544Z,68.70
2018-03-24T21:01:13.808Z,67.60
2018-03-24T21:03:42.063Z,66.50
2018-03-24T21:06:10.320Z,66.20
2018-03-24T21:08:38.609Z,65.80
2018-03-24T21:11:06.864Z,66.80
2018-03-24T21:13:35.123Z,67.70
2018-03-24T21:16:03.424Z,67.20
2018-03-24T21:18:31.698Z,67.10
2018-03-24T21:20:59.986Z,67.00
2018-03-24T21:23:29.155Z,66.10
2018-03-24T21:25:58.196Z,66.70
2018-03-24T21:28:26.452Z,66.70
2018-03-24T21:30:54.701Z,67.30
2018-03-24T21:33:23.776Z,68.60
2018-03-24T21:35:52.125Z,68.60
2018-03-24T21:38:20.413Z,68.60
2018-03-24T21:40:48.691Z,68.80
2018-03-24T21:43:17.062Z,68.30
2018-03-24T21:45:45.479Z,68.30
2018-03-24T21:48:13.731Z,69.70
2018-03-24T21:50:42.098Z,69.20
2018-03-24T21:53:10.318Z,69.60
2018-03-24T21:55:39.476Z,70.60
2018-03-24T21:58:07.766Z,70.10
2018-03-24T22:00:36.832Z,71.00
2018-03-24T22:03:05.103Z,70.90
2018-03-24T22:05:33.375Z,70.60
2018-03-24T22:08:02.162Z,69.40
2018-03-24T22:10:31.152Z,69.50
2018-03-24T22:13:00.173Z,69.80
2018-03-24T22:15:28.531Z,70.00
2018-03-24T22:17:56.797Z,70.80
2018-03-24T22:20:25.071Z,70.30
2018-03-24T22:22:53.384Z,69.60
2018-03-24T22:25:21.652Z,70.20
2018-03-24T22:27:49.956Z,70.70
2018-03-24T22:30:18.445Z,71.10
2018-03-24T22:32:46.797Z,71.60
2018-03-24T22:35:15.344Z,71.90
2018-03-24T22:37:46.991Z,71.60
2018-03-24T22:40:16.185Z,71.40
2018-03-24T22:42:44.762Z,71.40
2018-03-24T22:45:13.952Z,70.90
2018-03-24T22:47:43.347Z,71.20
2018-03-24T22:50:12.401Z,71.70
2018-03-24T22:52:40.750Z,71.70
2018-03-24T22:55:10.246Z,71.70
2018-03-24T22:57:39.533Z,71.70
2018-03-24T23:00:08.044Z,72.10
2018-03-24T23:02:36.766Z,72.30
2018-03-24T23:05:05.775Z,72.10
2018-03-24T23:07:34.144Z,72.10
2018-03-24T23:10:03.805Z,72.20
2018-03-24T23:12:33.036Z,72.20
2018-03-24T23:15:02.898Z,72.30
2018-03-24T23:17:31.882Z,72.70
2018-03-24T23:20:00.941Z,73.00
2018-03-24T23:22:29.384Z,72.70
2018-03-24T23:24:57.652Z,72.50
2018-03-24T23:27:26.010Z,72.70
2018-03-24T23:29:55.068Z,72.40
2018-03-24T23:32:23.345Z,72.40
2018-03-24T23:34:51.608Z,72.50
2018-03-24T23:37:19.989Z,72.70
2018-03-24T23:39:48.552Z,72.50
2018-03-24T23:42:16.883Z,72.70
2018-03-24T23:44:47.010Z,72.50
2018-03-24T23:47:15.826Z,72.60
2018-03-24T23:49:44.099Z,72.70
2018-03-24T23:52:12.382Z,73.00
2018-03-24T23:54:40.645Z,73.00
2018-03-24T23:57:08.915Z,73.30
2018-03-24T23:59:37.189Z,73.70
